Time;durP1;ratioP1;P1;durP2;ratioP2;P2;SDS_P1;SDS_P2;PMS_P1;PMS_P2;Temp;Humidity;BMP_temperature;BMP_pressure;BME280_temperature;BME280_humidity;BME280_pressure;Samples;Min_cycle;Max_cycle;Signal;HPM_P1;HPM_P2
2023/06/28 00:00:53;;;;;;;5.72;4.93;;;;;;;;;;2015987;29;20073;-90
2023/06/28 00:01:53;;;;;;;6.03;4.55;;;;;;;;;;2015722;29;20172;-89
2023/06/28 00:02:53;;;;;;;6.35;4.35;;;;;;;;;;2023216;29;20406;-89
2023/06/28 00:03:54;;;;;;;6.40;5.00;;;;;;;;;;2022999;29;20035;-89
2023/06/28 00:04:54;;;;;;;10.35;4.82;;;;;;;;;;2023464;29;20039;-90
2023/06/28 00:05:55;;;;;;;5.32;4.60;;;;;;;;;;2023072;29;20025;-90
2023/06/28 00:06:55;;;;;;;6.00;4.22;;;;;;;;;;2023000;29;20063;-90
2023/06/28 00:07:56;;;;;;;6.03;4.70;;;;;;;;;;2030706;29;20032;-90
2023/06/28 00:08:56;;;;;;;6.35;4.45;;;;;;;;;;2031273;29;20137;-90
2023/06/28 00:09:58;;;;;;;6.88;4.22;;;;;;;;;;2023067;29;20136;-90
2023/06/28 00:10:58;;;;;;;5.38;4.85;;;;;;;;;;2023294;29;20028;-91
2023/06/28 00:11:59;;;;;;;5.80;4.63;;;;;;;;;;2015466;29;20021;-91
2023/06/28 00:12:59;;;;;;;5.75;4.53;;;;;;;;;;2015298;29;20069;-90
2023/06/28 00:14:00;;;;;;;5.35;4.20;;;;;;;;;;2015628;29;20428;-91
2023/06/28 00:15:00;;;;;;;4.95;4.40;;;;;;;;;;2023041;29;20107;-91
2023/06/28 00:16:01;;;;;;;5.65;5.03;;;;;;;;;;2015518;29;20399;-91
2023/06/28 00:17:01;;;;;;;5.22;4.50;;;;;;;;;;2023149;29;20481;-91
2023/06/28 00:18:02;;;;;;;5.00;4.35;;;;;;;;;;2032036;29;20503;-90
2023/06/28 00:19:03;;;;;;;6.25;4.85;;;;;;;;;;2027062;29;20028;-91
2023/06/28 00:20:08;;;;;;;7.10;4.50;;;;;;;;;;2023109;29;20069;-91
2023/06/28 00:21:08;;;;;;;6.32;4.68;;;;;;;;;;2023304;29;20089;-90
2023/06/28 00:22:09;;;;;;;5.65;4.10;;;;;;;;;;2023156;29;20036;-90
2023/06/28 00:23:09;;;;;;;6.78;4.80;;;;;;;;;;2023257;29;20484;-91
2023/06/28 00:24:10;;;;;;;5.75;4.40;;;;;;;;;;2023609;29;20147;-91
2023/06/28 00:25:13;;;;;;;6.38;5.05;;;;;;;;;;2023218;29;20401;-91
2023/06/28 00:26:13;;;;;;;6.97;4.45;;;;;;;;;;2015784;29;20025;-90
2023/06/28 00:27:14;;;;;;;7.13;4.95;;;;;;;;;;2023344;29;20056;-91
2023/06/28 00:28:15;;;;;;;7.28;4.65;;;;;;;;;;2025507;29;20028;-90
2023/06/28 00:29:16;;;;;;;6.30;4.97;;;;;;;;;;2025393;29;20032;-91
2023/06/28 00:30:17;;;;;;;4.85;3.80;;;;;;;;;;2025514;29;20489;-91
2023/06/28 00:31:17;;;;;;;6.50;4.60;;;;;;;;;;2024514;29;20440;-91
2023/06/28 00:32:18;;;;;;;6.88;4.50;;;;;;;;;;2024611;29;20044;-90
2023/06/28 00:33:20;;;;;;;5.82;4.95;;;;;;;;;;2024695;29;20051;-91
2023/06/28 00:34:20;;;;;;;6.35;4.55;;;;;;;;;;2024787;29;20032;-91
2023/06/28 00:35:21;;;;;;;5.95;4.35;;;;;;;;;;2024637;29;20036;-91
2023/06/28 00:36:22;;;;;;;5.03;4.53;;;;;;;;;;2025207;29;20486;-90
2023/06/28 00:37:22;;;;;;;6.35;4.50;;;;;;;;;;2025285;29;20112;-90
2023/06/28 00:38:22;;;;;;;5.43;4.32;;;;;;;;;;1685902;29;10001489;-89
2023/06/28 00:39:23;;;;;;;6.15;4.53;;;;;;;;;;2024359;29;20075;-89
2023/06/28 00:40:23;;;;;;;5.30;4.43;;;;;;;;;;2025188;29;20043;-89
2023/06/28 00:41:24;;;;;;;5.78;4.90;;;;;;;;;;2024207;29;20028;-89
2023/06/28 00:42:24;;;;;;;4.75;4.18;;;;;;;;;;2024847;29;20032;-90
2023/06/28 00:43:25;;;;;;;8.45;4.60;;;;;;;;;;2024378;29;20025;-90
2023/06/28 00:44:26;;;;;;;5.80;4.60;;;;;;;;;;2016962;29;20033;-89
2023/06/28 00:45:26;;;;;;;6.88;4.63;;;;;;;;;;2016947;29;20504;-90
2023/06/28 00:46:26;;;;;;;5.93;4.43;;;;;;;;;;2024727;29;20060;-90
2023/06/28 00:47:29;;;;;;;5.93;4.13;;;;;;;;;;2025349;29;20481;-89
2023/06/28 00:48:29;;;;;;;7.32;4.97;;;;;;;;;;2024437;29;20052;-89
2023/06/28 00:49:32;;;;;;;5.30;4.40;;;;;;;;;;2024562;29;20028;-89
2023/06/28 00:50:34;;;;;;;5.53;4.80;;;;;;;;;;2024457;29;20528;-89
2023/06/28 00:51:35;;;;;;;7.78;4.93;;;;;;;;;;2016490;29;20025;-89
2023/06/28 00:52:36;;;;;;;7.28;4.70;;;;;;;;;;2024585;29;20036;-89
2023/06/28 00:53:37;;;;;;;5.45;4.53;;;;;;;;;;2032637;29;20381;-89
2023/06/28 00:54:37;;;;;;;5.88;4.78;;;;;;;;;;2024439;29;20035;-89
2023/06/28 00:55:38;;;;;;;5.07;4.57;;;;;;;;;;2024215;29;20096;-90
2023/06/28 00:56:39;;;;;;;5.68;5.07;;;;;;;;;;2016853;29;20037;-90
2023/06/28 00:57:39;;;;;;;5.97;4.40;;;;;;;;;;2024383;29;20024;-90
2023/06/28 00:58:40;;;;;;;6.35;4.70;;;;;;;;;;2024418;29;20088;-90
2023/06/28 00:59:41;;;;;;;5.00;4.50;;;;;;;;;;2024353;29;20501;-89
2023/06/28 01:00:44;;;;;;;5.25;4.75;;;;;;;;;;2024444;29;20033;-89
2023/06/28 01:01:45;;;;;;;5.43;4.68;;;;;;;;;;2017210;29;20125;-90
2023/06/28 01:02:45;;;;;;;6.05;4.85;;;;;;;;;;2016522;29;20043;-90
2023/06/28 01:03:50;;;;;;;5.65;5.05;;;;;;;;;;2024117;29;20240;-89
2023/06/28 01:04:53;;;;;;;5.95;4.70;;;;;;;;;;2024373;29;20035;-89
2023/06/28 01:05:57;;;;;;;6.35;4.93;;;;;;;;;;2025804;29;20608;-89
2023/06/28 01:07:00;;;;;;;6.90;4.93;;;;;;;;;;2031996;29;20116;-90
2023/06/28 01:08:01;;;;;;;6.18;5.05;;;;;;;;;;2018943;29;20021;-89
2023/06/28 01:09:09;;;;;;;5.07;4.57;;;;;;;;;;2025929;29;20027;-90
2023/06/28 01:10:10;;;;;;;5.60;4.43;;;;;;;;;;1685476;29;10228721;-90
2023/06/28 01:11:11;;;;;;;5.15;4.57;;;;;;;;;;2025505;29;20036;-89
2023/06/28 01:12:11;;;;;;;6.15;4.60;;;;;;;;;;2028116;29;20028;-90
2023/06/28 01:13:12;;;;;;;5.38;4.38;;;;;;;;;;2041711;29;20028;-89
2023/06/28 01:14:14;;;;;;;8.50;4.68;;;;;;;;;;2041610;29;20096;-89
2023/06/28 01:15:16;;;;;;;7.03;4.40;;;;;;;;;;2031790;29;20021;-89
2023/06/28 01:16:17;;;;;;;7.95;4.85;;;;;;;;;;2024781;29;20060;-90
2023/06/28 01:17:17;;;;;;;6.03;4.53;;;;;;;;;;2026182;29;20441;-90
2023/06/28 01:18:19;;;;;;;6.00;5.05;;;;;;;;;;2024552;29;20028;-89
2023/06/28 01:19:25;;;;;;;6.25;4.80;;;;;;;;;;2024491;29;20166;-89
2023/06/28 01:20:30;;;;;;;6.05;4.40;;;;;;;;;;2025266;29;20127;-89
2023/06/28 01:21:34;;;;;;;5.78;5.05;;;;;;;;;;2025143;29;20501;-89
2023/06/28 01:22:40;;;;;;;6.88;4.55;;;;;;;;;;2025191;29;20033;-89
2023/06/28 01:23:40;;;;;;;5.03;4.32;;;;;;;;;;2026692;29;20025;-90
2023/06/28 01:24:41;;;;;;;5.15;4.65;;;;;;;;;;2024054;29;20048;-89
2023/06/28 01:25:42;;;;;;;5.90;4.70;;;;;;;;;;2024284;29;20508;-89
2023/06/28 01:26:43;;;;;;;6.07;5.05;;;;;;;;;;2025167;29;20108;-89
2023/06/28 01:27:44;;;;;;;5.20;4.70;;;;;;;;;;2024241;29;20025;-89
2023/06/28 01:28:45;;;;;;;6.28;5.63;;;;;;;;;;2032064;29;20016;-89
2023/06/28 01:29:47;;;;;;;7.32;4.65;;;;;;;;;;2034608;29;20017;-90
2023/06/28 01:30:52;;;;;;;6.05;4.50;;;;;;;;;;2034630;29;20020;-90
2023/06/28 01:31:56;;;;;;;6.28;4.70;;;;;;;;;;2036435;29;20080;-90
2023/06/28 01:32:56;;;;;;;5.45;4.78;;;;;;;;;;2033742;29;20088;-89
2023/06/28 01:33:57;;;;;;;5.53;4.47;;;;;;;;;;2027897;29;20032;-89
2023/06/28 01:34:57;;;;;;;5.20;4.47;;;;;;;;;;2025087;29;20040;-89
2023/06/28 01:35:58;;;;;;;8.88;5.10;;;;;;;;;;2024142;29;20028;-90
2023/06/28 01:37:01;;;;;;;5.60;4.53;;;;;;;;;;2024207;29;20211;-90
2023/06/28 01:38:02;;;;;;;7.57;5.07;;;;;;;;;;2024167;29;20024;-90
2023/06/28 01:39:02;;;;;;;7.00;4.72;;;;;;;;;;2023053;29;20040;-90
2023/06/28 01:40:04;;;;;;;8.75;4.93;;;;;;;;;;2024301;29;20056;-91
2023/06/28 01:41:09;;;;;;;8.35;5.28;;;;;;;;;;2024246;29;20171;-90
2023/06/28 01:42:10;;;;;;;6.82;5.00;;;;;;;;;;2024452;29;20498;-90
2023/06/28 01:43:10;;;;;;;5.90;4.72;;;;;;;;;;2016524;29;20021;-91
2023/06/28 01:44:11;;;;;;;7.70;5.72;;;;;;;;;;2024159;29;20413;-90
2023/06/28 01:45:12;;;;;;;9.13;4.85;;;;;;;;;;2024491;29;20035;-90
2023/06/28 01:46:12;;;;;;;7.43;4.90;;;;;;;;;;2024036;29;20111;-91
2023/06/28 01:47:13;;;;;;;6.40;4.97;;;;;;;;;;2024289;29;20020;-91
2023/06/28 01:48:14;;;;;;;6.73;5.20;;;;;;;;;;1678963;29;10406036;-90
2023/06/28 01:49:14;;;;;;;5.47;4.75;;;;;;;;;;2032234;29;20276;-90
2023/06/28 01:50:15;;;;;;;8.88;5.35;;;;;;;;;;2031972;29;20134;-89
2023/06/28 01:51:15;;;;;;;7.65;5.10;;;;;;;;;;2023815;29;20422;-91
2023/06/28 01:52:16;;;;;;;6.78;4.70;;;;;;;;;;2023920;29;20021;-90
2023/06/28 01:53:18;;;;;;;6.68;5.13;;;;;;;;;;2016291;29;20035;-89
2023/06/28 01:54:19;;;;;;;6.13;5.13;;;;;;;;;;2024057;29;20036;-90
2023/06/28 01:55:19;;;;;;;6.13;4.72;;;;;;;;;;2035039;29;20071;-89
2023/06/28 01:56:20;;;;;;;7.50;4.45;;;;;;;;;;2025486;29;20039;-89
2023/06/28 01:57:20;;;;;;;5.22;4.45;;;;;;;;;;2024299;29;20025;-89
2023/06/28 01:58:20;;;;;;;7.40;5.45;;;;;;;;;;2028455;29;20108;-89
2023/06/28 01:59:21;;;;;;;6.97;4.97;;;;;;;;;;2024191;29;20028;-91
2023/06/28 02:00:22;;;;;;;6.40;5.40;;;;;;;;;;2024377;29;20236;-90
2023/06/28 02:01:22;;;;;;;5.33;4.82;;;;;;;;;;1686041;29;10002390;-90
2023/06/28 02:02:23;;;;;;;7.10;5.05;;;;;;;;;;2024332;29;20044;-90
2023/06/28 02:03:23;;;;;;;6.40;5.13;;;;;;;;;;2023765;29;20074;-90
2023/06/28 02:04:23;;;;;;;8.65;5.32;;;;;;;;;;2023992;29;20469;-90
2023/06/28 02:05:24;;;;;;;6.72;4.72;;;;;;;;;;2023963;29;20032;-90
2023/06/28 02:06:24;;;;;;;8.93;5.53;;;;;;;;;;2016056;29;20171;-90
2023/06/28 02:07:25;;;;;;;7.72;5.57;;;;;;;;;;2023782;29;20032;-90
2023/06/28 02:08:25;;;;;;;8.50;4.90;;;;;;;;;;2024561;29;20056;-90
2023/06/28 02:09:25;;;;;;;7.15;5.32;;;;;;;;;;2024412;29;20128;-90
2023/06/28 02:10:26;;;;;;;5.68;4.47;;;;;;;;;;2023990;29;20536;-90
2023/06/28 02:11:27;;;;;;;6.82;5.07;;;;;;;;;;2016076;29;20035;-90
2023/06/28 02:12:27;;;;;;;6.30;5.05;;;;;;;;;;1666308;29;10399672;-89
2023/06/28 02:13:28;;;;;;;6.35;5.10;;;;;;;;;;2016097;29;20060;-89
2023/06/28 02:14:28;;;;;;;7.13;6.13;;;;;;;;;;2023607;29;20040;-89
2023/06/28 02:15:30;;;;;;;6.93;5.00;;;;;;;;;;2016282;29;20029;-90
2023/06/28 02:16:31;;;;;;;5.93;4.95;;;;;;;;;;2024099;29;20028;-90
2023/06/28 02:17:31;;;;;;;6.18;5.22;;;;;;;;;;2024389;29;20044;-89
2023/06/28 02:18:34;;;;;;;7.97;5.63;;;;;;;;;;2024302;29;20032;-90
2023/06/28 02:19:35;;;;;;;5.68;4.85;;;;;;;;;;2024851;29;20055;-89
2023/06/28 02:20:36;;;;;;;6.10;4.72;;;;;;;;;;2024151;29;20107;-89
2023/06/28 02:21:36;;;;;;;5.50;4.88;;;;;;;;;;2024844;29;20485;-90
2023/06/28 02:22:37;;;;;;;7.13;5.63;;;;;;;;;;2031549;29;20079;-89
2023/06/28 02:23:40;;;;;;;9.07;5.30;;;;;;;;;;2023622;29;20024;-90
2023/06/28 02:24:41;;;;;;;8.30;4.95;;;;;;;;;;2023671;29;20063;-90
2023/06/28 02:25:41;;;;;;;6.28;5.18;;;;;;;;;;2016120;29;20069;-89
2023/06/28 02:26:41;;;;;;;8.65;5.03;;;;;;;;;;2016203;29;20106;-90
2023/06/28 02:27:42;;;;;;;6.85;5.40;;;;;;;;;;2015851;29;20492;-89
2023/06/28 02:28:42;;;;;;;6.97;5.50;;;;;;;;;;2016302;29;20024;-90
2023/06/28 02:29:43;;;;;;;8.02;5.57;;;;;;;;;;2023819;29;20187;-89
2023/06/28 02:30:43;;;;;;;10.23;5.32;;;;;;;;;;2024273;29;20482;-90
2023/06/28 02:31:44;;;;;;;6.70;5.15;;;;;;;;;;2023333;29;20115;-90
2023/06/28 02:32:46;;;;;;;7.65;5.28;;;;;;;;;;2023354;29;20080;-89
2023/06/28 02:33:47;;;;;;;7.63;5.20;;;;;;;;;;2016100;29;20033;-89
2023/06/28 02:34:47;;;;;;;6.18;4.88;;;;;;;;;;2023797;29;20056;-89
2023/06/28 02:35:48;;;;;;;7.00;5.10;;;;;;;;;;2023658;29;20147;-88
2023/06/28 02:36:48;;;;;;;8.10;5.30;;;;;;;;;;2023470;29;20032;-90
2023/06/28 02:37:49;;;;;;;9.73;5.65;;;;;;;;;;2023472;29;20039;-90
2023/06/28 02:38:49;;;;;;;7.38;5.13;;;;;;;;;;2023394;29;20032;-89
2023/06/28 02:39:49;;;;;;;6.97;5.30;;;;;;;;;;2023369;29;20024;-89
2023/06/28 02:40:50;;;;;;;6.68;5.35;;;;;;;;;;2023506;29;20177;-90
2023/06/28 02:41:50;;;;;;;5.97;5.15;;;;;;;;;;2024099;29;20032;-89
2023/06/28 02:42:51;;;;;;;7.50;4.93;;;;;;;;;;2023588;29;20029;-89
2023/06/28 02:43:51;;;;;;;7.28;5.35;;;;;;;;;;2023537;29;20035;-89
2023/06/28 02:44:52;;;;;;;7.78;5.45;;;;;;;;;;2024095;29;20059;-89
2023/06/28 02:45:52;;;;;;;9.23;5.55;;;;;;;;;;2024020;29;20036;-90
2023/06/28 02:46:53;;;;;;;9.02;5.50;;;;;;;;;;2023210;29;20028;-89
2023/06/28 02:47:57;;;;;;;7.68;5.82;;;;;;;;;;2027422;29;20028;-89
2023/06/28 02:48:57;;;;;;;12.38;5.72;;;;;;;;;;2027919;29;20136;-90
2023/06/28 02:49:58;;;;;;;9.20;5.30;;;;;;;;;;2023704;29;20437;-90
2023/06/28 02:50:58;;;;;;;10.63;5.53;;;;;;;;;;2031122;29;20035;-91
2023/06/28 02:51:59;;;;;;;9.63;5.57;;;;;;;;;;2031242;29;20031;-90
2023/06/28 02:53:01;;;;;;;9.13;5.75;;;;;;;;;;2026326;29;20112;-90
2023/06/28 02:54:02;;;;;;;6.35;5.63;;;;;;;;;;2024158;29;20465;-90
2023/06/28 02:55:02;;;;;;;6.50;5.15;;;;;;;;;;2024224;29;20020;-90
2023/06/28 02:56:03;;;;;;;7.75;6.07;;;;;;;;;;1677470;29;10264966;-90
2023/06/28 02:57:08;;;;;;;7.43;5.70;;;;;;;;;;2023467;29;20041;-90
2023/06/28 02:58:08;;;;;;;7.15;5.40;;;;;;;;;;2023399;29;20033;-90
2023/06/28 02:59:09;;;;;;;9.32;5.45;;;;;;;;;;2015795;29;20025;-90
2023/06/28 03:00:10;;;;;;;8.00;5.50;;;;;;;;;;2015647;29;20033;-91
2023/06/28 03:01:10;;;;;;;9.27;5.55;;;;;;;;;;2023450;29;20442;-90
2023/06/28 03:02:14;;;;;;;10.20;5.40;;;;;;;;;;1681753;29;10300705;-90
2023/06/28 03:03:15;;;;;;;6.82;5.40;;;;;;;;;;2023094;29;20032;-90
2023/06/28 03:04:15;;;;;;;10.15;4.90;;;;;;;;;;2023412;29;20020;-90
2023/06/28 03:05:18;;;;;;;7.32;5.10;;;;;;;;;;2023243;29;20409;-89
2023/06/28 03:06:19;;;;;;;9.27;5.78;;;;;;;;;;2031272;29;20095;-91
2023/06/28 03:07:19;;;;;;;6.90;6.03;;;;;;;;;;1677647;29;10239241;-91
2023/06/28 03:08:19;;;;;;;9.65;5.82;;;;;;;;;;2023531;29;20029;-91
2023/06/28 03:09:21;;;;;;;7.93;5.35;;;;;;;;;;2023318;29;20303;-91
2023/06/28 03:10:21;;;;;;;8.15;5.35;;;;;;;;;;2015527;29;20029;-90
2023/06/28 03:11:24;;;;;;;6.50;4.95;;;;;;;;;;2015506;29;20049;-90
2023/06/28 03:12:28;;;;;;;9.50;6.10;;;;;;;;;;1766770;29;10295322;-90
2023/06/28 03:13:28;;;;;;;9.90;5.40;;;;;;;;;;2023575;29;20416;-91
2023/06/28 03:14:28;;;;;;;7.75;5.40;;;;;;;;;;2023668;29;20119;-91
2023/06/28 03:15:29;;;;;;;7.35;6.07;;;;;;;;;;2023491;29;20025;-91
2023/06/28 03:16:29;;;;;;;8.00;6.05;;;;;;;;;;2023998;29;20040;-91
2023/06/28 03:17:30;;;;;;;7.68;6.35;;;;;;;;;;2023549;29;20100;-91
2023/06/28 03:18:30;;;;;;;9.32;6.30;;;;;;;;;;2030814;29;20035;-91
2023/06/28 03:19:31;;;;;;;8.63;6.25;;;;;;;;;;2030733;29;20561;-91
2023/06/28 03:20:32;;;;;;;10.85;5.80;;;;;;;;;;2023862;29;20041;-92
2023/06/28 03:21:32;;;;;;;9.10;5.97;;;;;;;;;;2022979;29;20051;-92
2023/06/28 03:22:33;;;;;;;6.97;5.10;;;;;;;;;;2023255;29;20037;-91
2023/06/28 03:23:33;;;;;;;6.70;5.07;;;;;;;;;;2023382;29;20099;-91
2023/06/28 03:24:34;;;;;;;6.53;5.53;;;;;;;;;;2024088;29;20032;-89
2023/06/28 03:25:34;;;;;;;8.57;5.88;;;;;;;;;;2031396;29;20024;-91
2023/06/28 03:26:34;;;;;;;7.05;5.68;;;;;;;;;;2031266;29;20237;-92
2023/06/28 03:27:35;;;;;;;7.03;6.22;;;;;;;;;;2023293;29;20029;-92
2023/06/28 03:28:35;;;;;;;8.68;6.00;;;;;;;;;;2015803;29;20021;-93
2023/06/28 03:29:36;;;;;;;7.57;5.97;;;;;;;;;;2023618;29;20524;-91
2023/06/28 03:30:36;;;;;;;7.00;5.60;;;;;;;;;;2024073;29;20028;-92
2023/06/28 03:31:37;;;;;;;9.05;5.68;;;;;;;;;;2024015;29;20437;-91
2023/06/28 03:33:12;;;;;;;7.55;5.45;;;;;;;;;;2034973;29;20480;-96
2023/06/28 03:34:21;;;;;;;7.97;6.20;;;;;;;;;;2023052;29;20013;-96
2023/06/28 03:35:22;;;;;;;11.07;6.63;;;;;;;;;;2029275;29;20079;-92
2023/06/28 03:36:24;;;;;;;8.55;5.90;;;;;;;;;;2030665;29;20005;-91
2023/06/28 03:37:25;;;;;;;8.90;5.95;;;;;;;;;;2034181;29;20008;-90
2023/06/28 03:38:25;;;;;;;7.53;5.47;;;;;;;;;;2033646;29;20017;-91
2023/06/28 03:39:26;;;;;;;7.90;5.25;;;;;;;;;;2025865;29;20465;-91
2023/06/28 03:40:28;;;;;;;6.63;5.13;;;;;;;;;;2033794;29;20016;-91
2023/06/28 03:41:31;;;;;;;7.43;5.38;;;;;;;;;;2029862;29;20032;-92
2023/06/28 03:42:31;;;;;;;6.72;5.00;;;;;;;;;;2024215;29;20077;-90
2023/06/28 03:43:32;;;;;;;6.50;4.78;;;;;;;;;;2026155;29;20239;-91
2023/06/28 03:44:32;;;;;;;7.53;5.25;;;;;;;;;;2031279;29;20472;-92
2023/06/28 03:45:33;;;;;;;5.28;4.78;;;;;;;;;;1676768;29;10455443;-92
2023/06/28 03:46:34;;;;;;;6.82;5.30;;;;;;;;;;2023681;29;20445;-92
2023/06/28 03:47:34;;;;;;;8.52;5.50;;;;;;;;;;2023423;29;20116;-91
2023/06/28 03:48:34;;;;;;;6.40;5.22;;;;;;;;;;2015783;29;20036;-92
2023/06/28 03:49:35;;;;;;;6.38;5.45;;;;;;;;;;2015565;29;20029;-92
2023/06/28 03:50:36;;;;;;;6.50;5.28;;;;;;;;;;2023476;29;20029;-91
2023/06/28 03:51:41;;;;;;;7.07;5.00;;;;;;;;;;2023595;29;20052;-92
2023/06/28 03:52:42;;;;;;;6.78;4.97;;;;;;;;;;2023001;29;20517;-92
2023/06/28 03:53:43;;;;;;;10.73;5.60;;;;;;;;;;2023747;29;20029;-91
2023/06/28 03:55:22;;;;;;;8.40;5.93;;;;;;;;;;2024459;29;20052;-91
2023/06/28 03:56:22;;;;;;;9.18;5.82;;;;;;;;;;2034304;29;20200;-92
2023/06/28 03:57:23;;;;;;;9.43;6.35;;;;;;;;;;2034522;29;20147;-91
2023/06/28 03:58:26;;;;;;;8.13;5.50;;;;;;;;;;2034305;29;20067;-92
2023/06/28 03:59:26;;;;;;;8.60;5.95;;;;;;;;;;2034013;29;20016;-91
2023/06/28 04:00:26;;;;;;;10.93;6.15;;;;;;;;;;2029159;29;20039;-90
2023/06/28 04:01:27;;;;;;;8.15;5.82;;;;;;;;;;2025068;29;20493;-91
2023/06/28 04:02:27;;;;;;;9.63;6.72;;;;;;;;;;2025221;29;20413;-90
2023/06/28 04:03:28;;;;;;;6.85;6.15;;;;;;;;;;2025041;29;20557;-91
2023/06/28 04:04:28;;;;;;;7.70;5.72;;;;;;;;;;2024872;29;20078;-90
2023/06/28 04:05:29;;;;;;;9.57;6.57;;;;;;;;;;2025270;29;20044;-91
2023/06/28 04:06:29;;;;;;;8.30;6.03;;;;;;;;;;2024844;29;20033;-91
2023/06/28 04:07:30;;;;;;;9.15;6.00;;;;;;;;;;2024917;29;20029;-91
2023/06/28 04:08:30;;;;;;;6.68;5.10;;;;;;;;;;2017539;29;20112;-90
2023/06/28 04:09:31;;;;;;;8.68;6.05;;;;;;;;;;2017041;29;20031;-91
2023/06/28 04:10:31;;;;;;;8.50;5.70;;;;;;;;;;2017242;29;20120;-90
2023/06/28 04:11:32;;;;;;;11.25;6.28;;;;;;;;;;2025315;29;20144;-91
2023/06/28 04:12:32;;;;;;;10.27;6.78;;;;;;;;;;2025048;29;20029;-91
2023/06/28 04:13:33;;;;;;;7.82;5.65;;;;;;;;;;2018286;29;20052;-91
2023/06/28 04:14:33;;;;;;;9.35;6.03;;;;;;;;;;2025661;29;20116;-91
2023/06/28 04:15:33;;;;;;;7.05;5.72;;;;;;;;;;2025519;29;20025;-91
2023/06/28 04:16:34;;;;;;;9.18;6.45;;;;;;;;;;2018101;29;20123;-91
2023/06/28 04:17:35;;;;;;;7.00;5.45;;;;;;;;;;2025925;29;20091;-90
2023/06/28 04:18:35;;;;;;;7.10;5.80;;;;;;;;;;2025997;29;20095;-90
2023/06/28 04:19:36;;;;;;;6.88;5.68;;;;;;;;;;2025468;29;20119;-90
2023/06/28 04:20:36;;;;;;;8.25;6.72;;;;;;;;;;2025526;29;20087;-90
2023/06/28 04:21:37;;;;;;;7.43;5.93;;;;;;;;;;2025310;29;20540;-90
2023/06/28 04:22:38;;;;;;;9.27;6.43;;;;;;;;;;2025578;29;20147;-91
2023/06/28 04:23:38;;;;;;;10.52;5.80;;;;;;;;;;2032343;29;20119;-90
2023/06/28 04:24:38;;;;;;;7.72;6.03;;;;;;;;;;2032694;29;20110;-91
2023/06/28 04:25:39;;;;;;;9.40;5.90;;;;;;;;;;2025002;29;20025;-91
2023/06/28 04:26:39;;;;;;;7.65;6.20;;;;;;;;;;2018677;29;20021;-91
2023/06/28 04:27:40;;;;;;;8.25;6.32;;;;;;;;;;2019999;29;20187;-91
2023/06/28 04:28:40;;;;;;;8.27;6.45;;;;;;;;;;2017483;29;20052;-92
2023/06/28 04:29:41;;;;;;;8.93;6.18;;;;;;;;;;2025719;29;20032;-91
2023/06/28 04:30:41;;;;;;;9.00;7.07;;;;;;;;;;2026322;29;20488;-91
2023/06/28 04:31:42;;;;;;;8.38;7.15;;;;;;;;;;2026362;29;20021;-91
2023/06/28 04:32:44;;;;;;;9.77;6.40;;;;;;;;;;2026178;29;20100;-90
2023/06/28 04:33:47;;;;;;;7.55;6.75;;;;;;;;;;2026396;29;20670;-91
2023/06/28 04:34:49;;;;;;;6.40;5.68;;;;;;;;;;2026576;29;20605;-91
2023/06/28 04:35:50;;;;;;;7.88;6.20;;;;;;;;;;2033528;29;20075;-91
2023/06/28 04:36:51;;;;;;;8.23;6.82;;;;;;;;;;2033714;29;20559;-90
2023/06/28 04:37:51;;;;;;;7.30;6.03;;;;;;;;;;2026301;29;20469;-91
2023/06/28 04:38:54;;;;;;;7.15;6.35;;;;;;;;;;2033534;29;20024;-92
2023/06/28 04:39:55;;;;;;;6.13;5.53;;;;;;;;;;2025620;29;20055;-91
2023/06/28 04:40:56;;;;;;;9.25;5.65;;;;;;;;;;2025772;29;20060;-90
2023/06/28 04:42:04;;;;;;;6.75;5.70;;;;;;;;;;2025940;29;20482;-92
2023/06/28 04:43:09;;;;;;;7.55;5.57;;;;;;;;;;2026161;29;20021;-90
2023/06/28 04:44:10;;;;;;;5.63;4.97;;;;;;;;;;2021659;29;20444;-91
2023/06/28 04:45:11;;;;;;;8.27;5.10;;;;;;;;;;2017776;29;20025;-90
2023/06/28 04:46:11;;;;;;;6.60;5.50;;;;;;;;;;2024493;29;20561;-91
2023/06/28 04:47:17;;;;;;;6.90;5.80;;;;;;;;;;2030368;29;20401;-91
2023/06/28 04:48:17;;;;;;;6.78;5.78;;;;;;;;;;2018357;29;20063;-91
2023/06/28 04:49:20;;;;;;;6.40;5.13;;;;;;;;;;2025496;29;20033;-91
2023/06/28 04:50:23;;;;;;;6.35;5.68;;;;;;;;;;2033256;29;20123;-91
2023/06/28 04:51:34;;;;;;;;;;;;;;;;;;;;;
2023/06/28 04:52:34;;;;;;;;;;;;;;;;;;2026294;29;20477;-91
2023/06/28 04:53:35;;;;;;;7.03;5.28;;;;;;;;;;2026206;29;19915;-91
2023/06/28 04:54:37;;;;;;;7.55;5.28;;;;;;;;;;2026218;29;20075;-91
2023/06/28 04:55:38;;;;;;;6.90;5.45;;;;;;;;;;2024619;29;20028;-92
2023/06/28 04:56:38;;;;;;;9.57;5.35;;;;;;;;;;2024395;29;20032;-91
2023/06/28 04:57:41;;;;;;;8.35;5.68;;;;;;;;;;2024797;29;20099;-90
2023/06/28 04:58:42;;;;;;;7.90;5.60;;;;;;;;;;2025161;29;20057;-91
2023/06/28 04:59:46;;;;;;;6.78;5.40;;;;;;;;;;2025382;29;20408;-91
2023/06/28 05:00:46;;;;;;;5.82;5.28;;;;;;;;;;2024669;29;20196;-91
2023/06/28 05:01:47;;;;;;;8.77;6.13;;;;;;;;;;2025049;29;20426;-91
2023/06/28 05:02:50;;;;;;;10.40;5.90;;;;;;;;;;2024398;29;20021;-91
2023/06/28 05:03:51;;;;;;;8.60;5.45;;;;;;;;;;2024418;29;20032;-92
2023/06/28 05:04:51;;;;;;;6.22;5.03;;;;;;;;;;2016150;29;20033;-92
2023/06/28 05:05:57;;;;;;;12.82;5.85;;;;;;;;;;2024145;29;20031;-90
2023/06/28 05:07:04;;;;;;;7.05;5.30;;;;;;;;;;2024784;29;20024;-90
2023/06/28 05:08:04;;;;;;;5.90;5.30;;;;;;;;;;2027155;29;20286;-90
2023/06/28 05:09:05;;;;;;;6.40;5.63;;;;;;;;;;2023800;29;20031;-91
2023/06/28 05:10:13;;;;;;;7.63;5.45;;;;;;;;;;2023901;29;20024;-91
2023/06/28 05:11:13;;;;;;;7.03;5.13;;;;;;;;;;2032805;29;20059;-91
2023/06/28 05:12:17;;;;;;;6.03;5.25;;;;;;;;;;2024044;29;20015;-92
2023/06/28 05:13:27;;;;;;;7.30;5.97;;;;;;;;;;2023859;29;20027;-92
2023/06/28 05:14:46;;;;;;;9.70;6.30;;;;;;;;;;2024804;29;20485;-92
2023/06/28 05:16:48;;;;;;;7.15;5.65;;;;;;;;;;2024960;29;20056;-90
2023/06/28 05:18:20;;;;;;;9.57;5.90;;;;;;;;;;2008816;29;20448;-93
2023/06/28 05:19:39;;;;;;;8.98;5.70;;;;;;;;;;2009142;29;20072;-93
2023/06/28 05:20:39;;;;;;;6.85;5.75;;;;;;;;;;2031949;29;20190;-92
2023/06/28 05:22:07;;;;;;;6.47;5.80;;;;;;;;;;2024356;29;20061;-92
2023/06/28 05:23:27;;;;;;;7.90;6.03;;;;;;;;;;2024558;29;20511;-93
2023/06/28 05:24:30;;;;;;;6.80;5.90;;;;;;;;;;2019487;29;20028;-93
2023/06/28 05:25:45;;;;;;;7.03;5.47;;;;;;;;;;2024833;29;20035;-92
2023/06/28 05:27:03;;;;;;;8.07;6.35;;;;;;;;;;2027563;29;20048;-92
2023/06/28 05:28:41;;;;;;;8.70;6.50;;;;;;;;;;2024155;29;20225;-92
2023/06/28 05:29:49;;;;;;;6.45;5.80;;;;;;;;;;2016194;29;20100;-93
2023/06/28 05:30:50;;;;;;;6.93;5.35;;;;;;;;;;2027964;29;20392;-92
2023/06/28 05:32:45;;;;;;;6.25;5.07;;;;;;;;;;2024563;29;20095;-92
2023/06/28 05:33:46;;;;;;;8.38;5.72;;;;;;;;;;2002547;29;20101;-93
2023/06/28 05:34:46;;;;;;;6.00;5.22;;;;;;;;;;2024139;29;20024;-92
2023/06/28 05:35:47;;;;;;;7.78;5.35;;;;;;;;;;2016291;29;20028;-92
2023/06/28 05:36:48;;;;;;;9.50;5.28;;;;;;;;;;2016522;29;20088;-92
2023/06/28 05:38:08;;;;;;;7.75;5.43;;;;;;;;;;2024308;29;20401;-92
2023/06/28 05:39:12;;;;;;;;;;;;;;;;;;2025258;29;20091;-92
2023/06/28 05:40:20;;;;;;;9.05;5.53;;;;;;;;;;2024650;29;19947;-93
2023/06/28 05:41:25;;;;;;;8.43;5.97;;;;;;;;;;2024744;29;20516;-90
2023/06/28 05:42:59;;;;;;;8.30;5.80;;;;;;;;;;2024608;29;20024;-93
2023/06/28 05:44:18;;;;;;;;;;;;;;;;;;;;;
2023/06/28 05:45:36;;;;;;;6.75;5.47;;;;;;;;;;2025395;29;20031;-92
2023/06/28 05:46:37;;;;;;;7.93;5.32;;;;;;;;;;2023834;29;20576;-92
2023/06/28 05:47:42;;;;;;;7.95;6.50;;;;;;;;;;1674483;29;10378374;-91
2023/06/28 05:48:43;;;;;;;7.78;5.60;;;;;;;;;;1686541;29;10000484;-93
2023/06/28 05:49:53;;;;;;;6.75;5.43;;;;;;;;;;2024341;29;20029;-93
2023/06/28 05:50:54;;;;;;;6.47;5.20;;;;;;;;;;2026067;29;20039;-91
2023/06/28 05:51:54;;;;;;;6.68;5.00;;;;;;;;;;2023812;29;20037;-90
2023/06/28 05:52:55;;;;;;;6.00;4.85;;;;;;;;;;2024095;29;20107;-92
2023/06/28 05:53:55;;;;;;;8.88;5.65;;;;;;;;;;2024379;29;20044;-91
2023/06/28 05:54:56;;;;;;;8.40;5.47;;;;;;;;;;2023941;29;20529;-91
2023/06/28 05:56:06;;;;;;;6.70;5.20;;;;;;;;;;2016225;29;20056;-92
2023/06/28 05:57:08;;;;;;;7.22;5.20;;;;;;;;;;2016993;29;20064;-90
2023/06/28 05:58:11;;;;;;;6.43;5.15;;;;;;;;;;2016491;29;20033;-90
2023/06/28 05:59:14;;;;;;;7.20;5.07;;;;;;;;;;2024243;29;20025;-90
2023/06/28 06:00:15;;;;;;;6.85;4.90;;;;;;;;;;2024014;29;20024;-90
2023/06/28 06:01:19;;;;;;;5.60;4.80;;;;;;;;;;1794843;29;10350567;-90
2023/06/28 06:02:22;;;;;;;9.48;5.15;;;;;;;;;;2034511;29;20278;-89
2023/06/28 06:03:30;;;;;;;6.30;4.65;;;;;;;;;;2034917;29;20020;-91
2023/06/28 06:04:38;;;;;;;5.75;5.22;;;;;;;;;;2035141;29;20020;-91
2023/06/28 06:05:47;;;;;;;6.15;5.03;;;;;;;;;;2034444;29;20153;-90
2023/06/28 06:06:47;;;;;;;7.68;5.32;;;;;;;;;;2033055;29;20036;-90
2023/06/28 06:07:48;;;;;;;5.00;4.53;;;;;;;;;;2023947;29;20586;-90
2023/06/28 06:08:51;;;;;;;7.57;4.97;;;;;;;;;;2024042;29;20108;-90
2023/06/28 06:09:53;;;;;;;6.10;5.18;;;;;;;;;;2023887;29;20626;-89
2023/06/28 06:10:56;;;;;;;5.38;4.75;;;;;;;;;;2023826;29;20148;-91
2023/06/28 06:11:56;;;;;;;6.55;5.00;;;;;;;;;;2024115;29;20100;-91
2023/06/28 06:12:57;;;;;;;6.10;5.03;;;;;;;;;;2024702;29;20033;-91
2023/06/28 06:13:57;;;;;;;6.15;5.05;;;;;;;;;;2024650;29;20028;-91
2023/06/28 06:14:59;;;;;;;6.32;5.03;;;;;;;;;;2023953;29;20047;-89
2023/06/28 06:16:04;;;;;;;7.50;5.00;;;;;;;;;;2023817;29;20081;-90